BAW509 LPPT-EGLL
Flight info
| Callsign | BAW509 |
|---|---|
| Flight time | 2h 6m |
| Altitude | 38000 |
| Route | IXIDA1S IXIDA DCT RIVRO DCT TOSDI DCT ZMR DCT NUBLO DCT RONSI DCT DELOG DCT DEGEX DCT OZNOH DCT JSY DCT REVTU/N0435F340 UP87 ROXOG ROXOG1H |
| Aircraft | A21N/M-SDGHIJ1LRWXY/SB1 |
Departure
| Time | 2026-05-04 07:39 |
|---|---|
| Airport | Lisbon Humberto Delgado Airport (LPPT) |
Arrival
| Time | 2026-05-04 09:46 |
|---|---|
| Airport | London Heathrow Airport (EGLL) |
| Time | Latitude | Longitude | Altitude | Speed | Heading |
|---|---|---|---|---|---|
| 2026-05-04 06:37 | 38.77373 | -9.13136 | 335 ft | 0 kts | 78° |
| 2026-05-04 07:30 | 38.77371 | -9.13147 | 333 ft | 4 kts | 80° |
| 2026-05-04 07:30 | 38.77368 | -9.13181 | 334 ft | 4 kts | 87° |
| 2026-05-04 07:30 | 38.77368 | -9.13216 | 334 ft | 4 kts | 97° |
| 2026-05-04 07:31 | 38.77374 | -9.13249 | 335 ft | 4 kts | 118° |
| 2026-05-04 07:31 | 38.77389 | -9.13270 | 336 ft | 2 kts | 170° |
| 2026-05-04 07:33 | 38.77390 | -9.13270 | 336 ft | 0 kts | 170° |
| 2026-05-04 07:34 | 38.77380 | -9.13268 | 334 ft | 4 kts | 170° |
| 2026-05-04 07:35 | 38.77334 | -9.13289 | 337 ft | 10 kts | 236° |
| 2026-05-04 07:35 | 38.77312 | -9.13398 | 347 ft | 15 kts | 259° |
| 2026-05-04 07:35 | 38.77290 | -9.13540 | 354 ft | 18 kts | 258° |
| 2026-05-04 07:35 | 38.77261 | -9.13709 | 359 ft | 21 kts | 257° |
| 2026-05-04 07:36 | 38.77253 | -9.13758 | 354 ft | 6 kts | 258° |
| 2026-05-04 07:36 | 38.77219 | -9.13849 | 359 ft | 18 kts | 213° |
| 2026-05-04 07:38 | 38.76697 | -9.14361 | 337 ft | 0 kts | 23° |
| 2026-05-04 07:38 | 38.76705 | -9.14356 | 334 ft | 9 kts | 23° |
| 2026-05-04 07:38 | 38.76854 | -9.14277 | 347 ft | 58 kts | 22° |
| 2026-05-04 07:39 | 38.77416 | -9.13976 | 365 ft | 116 kts | 22° |
| 2026-05-04 07:39 | 38.78312 | -9.13501 | 390 ft | 159 kts | 20° |
| 2026-05-04 07:39 | 38.79337 | -9.12932 | 931 ft | 159 kts | 23° |
| 2026-05-04 07:39 | 38.80295 | -9.12332 | 1676 ft | 152 kts | 24° |
| 2026-05-04 07:40 | 38.81229 | -9.11691 | 2234 ft | 157 kts | 26° |
| 2026-05-04 07:40 | 38.82246 | -9.10965 | 2581 ft | 177 kts | 26° |
| 2026-05-04 07:40 | 38.83375 | -9.10135 | 3024 ft | 197 kts | 27° |
| 2026-05-04 07:40 | 38.84648 | -9.09193 | 3464 ft | 223 kts | 27° |
| 2026-05-04 07:41 | 38.86046 | -9.08152 | 4034 ft | 242 kts | 27° |
| 2026-05-04 07:41 | 38.87558 | -9.07026 | 4687 ft | 258 kts | 28° |
| 2026-05-04 07:41 | 38.89117 | -9.05849 | 5571 ft | 263 kts | 30° |
| 2026-05-04 07:41 | 38.90582 | -9.04379 | 6456 ft | 270 kts | 40° |
| 2026-05-04 07:42 | 38.91971 | -9.02732 | 7325 ft | 275 kts | 40° |
| 2026-05-04 07:42 | 38.93397 | -9.01060 | 8151 ft | 281 kts | 39° |
| 2026-05-04 07:42 | 38.94859 | -8.99355 | 9003 ft | 286 kts | 39° |
| 2026-05-04 07:42 | 38.96324 | -8.97649 | 9850 ft | 291 kts | 39° |
| 2026-05-04 07:43 | 38.97849 | -8.95873 | 10494 ft | 304 kts | 39° |
| 2026-05-04 07:43 | 38.99479 | -8.93979 | 10770 ft | 328 kts | 39° |
| 2026-05-04 07:43 | 39.01222 | -8.91949 | 11132 ft | 346 kts | 39° |
| 2026-05-04 07:43 | 39.03009 | -8.89858 | 11912 ft | 350 kts | 39° |
| 2026-05-04 07:44 | 39.04822 | -8.87732 | 12651 ft | 356 kts | 39° |
| 2026-05-04 07:44 | 39.06668 | -8.85567 | 13390 ft | 362 kts | 39° |
| 2026-05-04 07:44 | 39.08540 | -8.83372 | 14098 ft | 367 kts | 39° |
| 2026-05-04 07:44 | 39.10438 | -8.81147 | 14806 ft | 370 kts | 39° |
| 2026-05-04 07:45 | 39.12350 | -8.78904 | 15513 ft | 373 kts | 39° |
| 2026-05-04 07:45 | 39.14249 | -8.76674 | 16188 ft | 377 kts | 39° |
| 2026-05-04 07:45 | 39.16198 | -8.74381 | 16858 ft | 381 kts | 39° |
| 2026-05-04 07:45 | 39.18032 | -8.71874 | 17509 ft | 388 kts | 45° |
| 2026-05-04 07:46 | 39.19823 | -8.69234 | 18096 ft | 394 kts | 45° |
| 2026-05-04 07:46 | 39.21639 | -8.66575 | 18728 ft | 397 kts | 45° |
| 2026-05-04 07:46 | 39.23471 | -8.63894 | 19322 ft | 400 kts | 45° |
| 2026-05-04 07:46 | 39.25314 | -8.61197 | 19896 ft | 403 kts | 45° |
| 2026-05-04 07:47 | 39.27171 | -8.58473 | 20508 ft | 405 kts | 45° |
| 2026-05-04 07:47 | 39.29036 | -8.55734 | 21108 ft | 408 kts | 45° |
| 2026-05-04 07:47 | 39.30912 | -8.52976 | 21675 ft | 411 kts | 45° |
| 2026-05-04 07:49 | 39.44432 | -8.33031 | 25046 ft | 437 kts | 45° |
| 2026-05-04 07:49 | 39.46450 | -8.30046 | 25337 ft | 443 kts | 45° |
| 2026-05-04 07:49 | 39.48457 | -8.27072 | 25754 ft | 446 kts | 45° |
| 2026-05-04 07:50 | 39.50531 | -8.23994 | 26140 ft | 450 kts | 45° |
| 2026-05-04 07:50 | 39.52562 | -8.20977 | 26605 ft | 451 kts | 45° |
| 2026-05-04 07:50 | 39.54625 | -8.17908 | 27062 ft | 453 kts | 45° |
| 2026-05-04 07:50 | 39.56705 | -8.14815 | 27404 ft | 457 kts | 45° |
| 2026-05-04 07:51 | 39.58800 | -8.11695 | 27759 ft | 460 kts | 45° |
| 2026-05-04 07:51 | 39.60908 | -8.08553 | 28114 ft | 464 kts | 45° |
| 2026-05-04 07:51 | 39.63029 | -8.05387 | 28460 ft | 467 kts | 45° |
| 2026-05-04 07:51 | 39.65166 | -8.02197 | 28766 ft | 470 kts | 45° |
| 2026-05-04 07:52 | 39.67434 | -7.99138 | 29079 ft | 471 kts | 41° |
| 2026-05-04 07:52 | 39.69748 | -7.96113 | 29399 ft | 474 kts | 41° |
| 2026-05-04 07:52 | 39.72080 | -7.93063 | 29697 ft | 477 kts | 41° |
| 2026-05-04 07:52 | 39.74386 | -7.90039 | 30003 ft | 479 kts | 41° |
| 2026-05-04 07:53 | 39.76738 | -7.86951 | 30284 ft | 482 kts | 41° |
| 2026-05-04 07:54 | 39.93253 | -7.65155 | 32493 ft | 487 kts | 41° |
| 2026-05-04 07:55 | 39.95632 | -7.62001 | 32771 ft | 488 kts | 41° |
| 2026-05-04 07:55 | 39.98017 | -7.58837 | 33037 ft | 490 kts | 42° |
| 2026-05-04 07:55 | 40.00414 | -7.55656 | 33214 ft | 493 kts | 42° |
| 2026-05-04 07:55 | 40.02815 | -7.52465 | 33638 ft | 491 kts | 42° |
| 2026-05-04 07:56 | 40.05205 | -7.49284 | 33944 ft | 491 kts | 42° |
| 2026-05-04 07:56 | 40.07597 | -7.46097 | 34190 ft | 492 kts | 42° |
| 2026-05-04 07:56 | 40.09990 | -7.42905 | 34421 ft | 492 kts | 42° |
| 2026-05-04 07:56 | 40.12350 | -7.39755 | 34657 ft | 492 kts | 42° |
| 2026-05-04 07:57 | 40.14739 | -7.36560 | 34887 ft | 492 kts | 42° |
| 2026-05-04 07:57 | 40.17133 | -7.33358 | 35115 ft | 492 kts | 42° |
| 2026-05-04 07:57 | 40.19521 | -7.30159 | 35341 ft | 492 kts | 42° |
| 2026-05-04 07:57 | 40.21914 | -7.26950 | 35540 ft | 492 kts | 43° |
| 2026-05-04 07:58 | 40.24302 | -7.23744 | 35766 ft | 492 kts | 43° |
| 2026-05-04 07:58 | 40.26693 | -7.20533 | 36022 ft | 492 kts | 43° |
| 2026-05-04 07:58 | 40.29083 | -7.17321 | 36171 ft | 493 kts | 43° |
| 2026-05-04 07:58 | 40.31443 | -7.14146 | 36381 ft | 493 kts | 43° |
| 2026-05-04 07:59 | 40.33832 | -7.10927 | 36572 ft | 493 kts | 43° |
| 2026-05-04 07:59 | 40.36223 | -7.07701 | 36770 ft | 493 kts | 43° |
| 2026-05-04 07:59 | 40.38608 | -7.04477 | 36957 ft | 493 kts | 43° |
| 2026-05-04 07:59 | 40.40993 | -7.01251 | 37136 ft | 493 kts | 43° |
| 2026-05-04 08:00 | 40.43378 | -6.98021 | 37303 ft | 493 kts | 43° |
| 2026-05-04 08:00 | 40.45761 | -6.94789 | 37473 ft | 493 kts | 43° |
| 2026-05-04 08:00 | 40.48144 | -6.91555 | 37639 ft | 493 kts | 43° |
| 2026-05-04 08:02 | 40.64931 | -6.69166 | 38058 ft | 490 kts | 39° |
| 2026-05-04 08:02 | 40.70037 | -6.63196 | 38058 ft | 491 kts | 39° |
| 2026-05-04 08:03 | 40.75117 | -6.57227 | 38059 ft | 490 kts | 39° |
| 2026-05-04 08:03 | 40.80169 | -6.51274 | 38054 ft | 490 kts | 39° |
| 2026-05-04 08:04 | 40.85250 | -6.45274 | 38038 ft | 490 kts | 39° |
| 2026-05-04 08:04 | 40.90330 | -6.39263 | 38031 ft | 490 kts | 39° |
| 2026-05-04 08:05 | 40.95377 | -6.33277 | 38033 ft | 491 kts | 39° |
| 2026-05-04 08:05 | 41.00457 | -6.27241 | 38045 ft | 491 kts | 40° |
| 2026-05-04 08:06 | 41.05540 | -6.21185 | 38044 ft | 491 kts | 40° |
| 2026-05-04 08:06 | 41.10620 | -6.15120 | 38034 ft | 492 kts | 40° |
| 2026-05-04 08:08 | 41.30911 | -5.90767 | 38028 ft | 493 kts | 40° |
| 2026-05-04 08:11 | 41.54122 | -5.63936 | 38013 ft | 491 kts | 28° |
| 2026-05-04 08:11 | 41.63340 | -5.58204 | 38009 ft | 487 kts | 20° |
| 2026-05-04 08:12 | 41.69521 | -5.54693 | 37999 ft | 484 kts | 20° |
| 2026-05-04 08:12 | 41.75699 | -5.51186 | 38008 ft | 481 kts | 20° |
| 2026-05-04 08:13 | 41.81909 | -5.47666 | 38004 ft | 486 kts | 20° |
| 2026-05-04 08:13 | 41.88135 | -5.44130 | 37994 ft | 485 kts | 20° |
| 2026-05-04 08:14 | 41.94304 | -5.40617 | 37995 ft | 485 kts | 20° |
| 2026-05-04 08:16 | 42.19087 | -5.26434 | 37976 ft | 484 kts | 21° |
| 2026-05-04 08:16 | 42.25278 | -5.22872 | 37972 ft | 484 kts | 21° |
| 2026-05-04 08:17 | 42.31475 | -5.19299 | 37981 ft | 484 kts | 21° |
| 2026-05-04 08:17 | 42.37665 | -5.15722 | 37984 ft | 484 kts | 21° |
| 2026-05-04 08:19 | 42.62410 | -5.01346 | 38000 ft | 485 kts | 21° |
| 2026-05-04 08:20 | 42.68605 | -4.97728 | 37997 ft | 485 kts | 21° |
| 2026-05-04 08:20 | 42.74764 | -4.94122 | 37985 ft | 485 kts | 21° |
| 2026-05-04 08:21 | 42.80959 | -4.90486 | 37992 ft | 485 kts | 21° |
| 2026-05-04 08:21 | 42.87159 | -4.86840 | 37991 ft | 485 kts | 21° |
| 2026-05-04 08:22 | 42.93356 | -4.83189 | 38011 ft | 485 kts | 21° |
| 2026-05-04 08:24 | 43.18101 | -4.68526 | 38026 ft | 484 kts | 22° |
| 2026-05-04 08:24 | 43.24271 | -4.64850 | 38021 ft | 484 kts | 22° |
| 2026-05-04 08:25 | 43.30454 | -4.61157 | 38026 ft | 483 kts | 21° |
| 2026-05-04 08:25 | 43.36605 | -4.57477 | 38030 ft | 482 kts | 22° |
| 2026-05-04 08:27 | 43.61094 | -4.42738 | 38028 ft | 484 kts | 22° |
| 2026-05-04 08:28 | 43.67214 | -4.39034 | 38023 ft | 483 kts | 22° |
| 2026-05-04 08:28 | 43.73374 | -4.35297 | 38024 ft | 484 kts | 22° |
| 2026-05-04 08:29 | 43.79530 | -4.31556 | 38022 ft | 483 kts | 22° |
| 2026-05-04 08:31 | 44.04012 | -4.16589 | 37993 ft | 481 kts | 22° |
| 2026-05-04 08:33 | 44.28401 | -4.01544 | 38014 ft | 480 kts | 23° |
| 2026-05-04 08:35 | 44.50998 | -3.94607 | 38002 ft | 477 kts | 8° |
| 2026-05-04 08:35 | 44.54276 | -3.93848 | 38004 ft | 477 kts | 7° |
| 2026-05-04 08:35 | 44.60824 | -3.92337 | 38009 ft | 477 kts | 8° |
| 2026-05-04 08:37 | 44.83738 | -3.87025 | 38008 ft | 478 kts | 8° |
| 2026-05-04 08:38 | 44.90301 | -3.85496 | 38012 ft | 478 kts | 8° |
| 2026-05-04 08:38 | 44.96857 | -3.83966 | 38013 ft | 478 kts | 8° |
| 2026-05-04 08:40 | 45.23057 | -3.77811 | 38004 ft | 478 kts | 8° |
| 2026-05-04 08:41 | 45.29624 | -3.76260 | 38005 ft | 478 kts | 8° |
| 2026-05-04 08:41 | 45.36141 | -3.74717 | 38008 ft | 478 kts | 8° |
| 2026-05-04 08:42 | 45.42703 | -3.73159 | 38013 ft | 478 kts | 8° |
| 2026-05-04 08:42 | 45.49257 | -3.71599 | 38005 ft | 478 kts | 8° |
| 2026-05-04 08:43 | 45.55810 | -3.70036 | 38004 ft | 477 kts | 8° |
| 2026-05-04 08:43 | 45.62314 | -3.68481 | 38001 ft | 477 kts | 8° |
| 2026-05-04 08:44 | 45.68852 | -3.66915 | 38001 ft | 476 kts | 8° |
| 2026-05-04 08:46 | 45.94913 | -3.60633 | 37994 ft | 475 kts | 8° |
| 2026-05-04 08:46 | 46.01425 | -3.59054 | 37994 ft | 474 kts | 8° |
| 2026-05-04 08:47 | 46.07932 | -3.57472 | 37991 ft | 474 kts | 8° |
| 2026-05-04 08:47 | 46.14390 | -3.55898 | 37979 ft | 474 kts | 8° |
| 2026-05-04 08:48 | 46.20891 | -3.54311 | 37978 ft | 474 kts | 8° |
| 2026-05-04 08:48 | 46.27397 | -3.52718 | 37984 ft | 474 kts | 8° |
| 2026-05-04 08:49 | 46.33903 | -3.51122 | 37983 ft | 474 kts | 8° |
| 2026-05-04 08:50 | 46.56671 | -3.45504 | 38001 ft | 476 kts | 9° |
| 2026-05-04 08:51 | 46.63189 | -3.43885 | 37989 ft | 474 kts | 9° |
| 2026-05-04 08:51 | 46.69645 | -3.42280 | 37993 ft | 474 kts | 9° |
| 2026-05-04 08:52 | 46.76146 | -3.40660 | 37997 ft | 474 kts | 9° |
| 2026-05-04 08:52 | 46.82648 | -3.39035 | 37997 ft | 474 kts | 9° |
| 2026-05-04 08:54 | 47.08624 | -3.32503 | 38000 ft | 474 kts | 9° |
| 2026-05-04 08:55 | 47.15131 | -3.30857 | 37999 ft | 474 kts | 9° |
| 2026-05-04 08:55 | 47.21635 | -3.29207 | 37989 ft | 474 kts | 9° |
| 2026-05-04 09:01 | 47.87727 | -3.04027 | 38006 ft | 472 kts | 30° |
| 2026-05-04 09:01 | 47.93359 | -2.99129 | 38007 ft | 472 kts | 31° |
| 2026-05-04 09:02 | 47.99019 | -2.94170 | 38007 ft | 472 kts | 31° |
| 2026-05-04 09:02 | 48.04675 | -2.89195 | 38010 ft | 472 kts | 31° |
| 2026-05-04 09:03 | 48.10327 | -2.84212 | 38008 ft | 472 kts | 31° |
| 2026-05-04 09:03 | 48.15938 | -2.79253 | 38010 ft | 472 kts | 31° |
| 2026-05-04 09:04 | 48.21584 | -2.74250 | 38001 ft | 469 kts | 31° |
| 2026-05-04 09:04 | 48.27174 | -2.69283 | 37998 ft | 467 kts | 31° |
| 2026-05-04 09:05 | 48.32771 | -2.64297 | 38000 ft | 468 kts | 31° |
| 2026-05-04 09:05 | 48.38329 | -2.59334 | 37999 ft | 467 kts | 31° |
| 2026-05-04 09:06 | 48.43921 | -2.54330 | 38002 ft | 468 kts | 31° |
| 2026-05-04 09:08 | 48.67772 | -2.38954 | 37978 ft | 467 kts | 22° |
| 2026-05-04 09:08 | 48.73774 | -2.35202 | 37984 ft | 467 kts | 22° |
| 2026-05-04 09:09 | 48.79778 | -2.31438 | 37987 ft | 467 kts | 22° |
| 2026-05-04 09:09 | 48.85738 | -2.27693 | 37989 ft | 467 kts | 22° |
| 2026-05-04 09:10 | 48.91747 | -2.23907 | 37995 ft | 468 kts | 22° |
| 2026-05-04 09:10 | 48.97759 | -2.20109 | 38005 ft | 468 kts | 22° |
| 2026-05-04 09:11 | 49.03777 | -2.16297 | 38002 ft | 469 kts | 22° |
| 2026-05-04 09:11 | 49.09771 | -2.12492 | 38022 ft | 471 kts | 22° |
| 2026-05-04 09:12 | 49.15832 | -2.08634 | 37950 ft | 472 kts | 22° |
| 2026-05-04 09:12 | 49.18868 | -2.06696 | 37492 ft | 472 kts | 23° |
| 2026-05-04 09:14 | 49.38992 | -1.90304 | 37578 ft | 469 kts | 29° |
| 2026-05-04 09:14 | 49.41843 | -1.87877 | 37700 ft | 469 kts | 29° |
| 2026-05-04 09:14 | 49.44693 | -1.85446 | 37835 ft | 469 kts | 29° |
| 2026-05-04 09:14 | 49.47542 | -1.83012 | 37974 ft | 469 kts | 29° |
| 2026-05-04 09:15 | 49.50396 | -1.80570 | 38011 ft | 469 kts | 29° |
| 2026-05-04 09:15 | 49.56090 | -1.75856 | 38011 ft | 468 kts | 24° |
| 2026-05-04 09:17 | 49.84910 | -1.70433 | 38013 ft | 466 kts | 2° |
| 2026-05-04 09:18 | 49.91378 | -1.69883 | 37896 ft | 464 kts | 2° |
| 2026-05-04 09:18 | 49.94605 | -1.69609 | 37396 ft | 465 kts | 2° |
| 2026-05-04 09:18 | 49.97851 | -1.69300 | 36667 ft | 469 kts | 5° |
| 2026-05-04 09:19 | 50.01091 | -1.68501 | 35732 ft | 476 kts | 13° |
| 2026-05-04 09:19 | 50.04306 | -1.67077 | 34696 ft | 485 kts | 18° |
| 2026-05-04 09:19 | 50.07509 | -1.65507 | 33654 ft | 493 kts | 17° |
| 2026-05-04 09:19 | 50.10799 | -1.63917 | 32727 ft | 495 kts | 17° |
| 2026-05-04 09:20 | 50.14077 | -1.62336 | 31950 ft | 493 kts | 17° |
| 2026-05-04 09:20 | 50.17359 | -1.60748 | 31111 ft | 494 kts | 17° |
| 2026-05-04 09:20 | 50.20639 | -1.59156 | 30427 ft | 492 kts | 17° |
| 2026-05-04 09:20 | 50.23896 | -1.57571 | 29791 ft | 488 kts | 18° |
| 2026-05-04 09:21 | 50.27115 | -1.56001 | 29162 ft | 482 kts | 18° |
| 2026-05-04 09:21 | 50.30296 | -1.54447 | 28560 ft | 476 kts | 18° |
| 2026-05-04 09:21 | 50.33440 | -1.52908 | 27953 ft | 471 kts | 18° |
| 2026-05-04 09:21 | 50.36547 | -1.51386 | 27349 ft | 466 kts | 18° |
| 2026-05-04 09:22 | 50.39625 | -1.49876 | 26752 ft | 461 kts | 18° |
| 2026-05-04 09:22 | 50.42627 | -1.48400 | 26158 ft | 456 kts | 17° |
| 2026-05-04 09:22 | 50.45640 | -1.46918 | 25565 ft | 452 kts | 17° |
| 2026-05-04 09:22 | 50.48626 | -1.45447 | 24976 ft | 447 kts | 17° |
| 2026-05-04 09:23 | 50.51578 | -1.43991 | 24377 ft | 443 kts | 18° |
| 2026-05-04 09:23 | 50.54446 | -1.42254 | 23789 ft | 439 kts | 25° |
| 2026-05-04 09:23 | 50.57132 | -1.40012 | 23170 ft | 434 kts | 30° |
| 2026-05-04 09:23 | 50.59759 | -1.37744 | 22577 ft | 428 kts | 29° |
| 2026-05-04 09:25 | 50.77279 | -1.22523 | 18657 ft | 397 kts | 34° |
| 2026-05-04 09:25 | 50.79581 | -1.20135 | 18081 ft | 394 kts | 34° |
| 2026-05-04 09:26 | 50.81866 | -1.17780 | 17518 ft | 390 kts | 33° |
| 2026-05-04 09:26 | 50.84125 | -1.15452 | 16981 ft | 385 kts | 33° |
| 2026-05-04 09:26 | 50.86361 | -1.13146 | 16429 ft | 382 kts | 33° |
| 2026-05-04 09:26 | 50.88577 | -1.10857 | 15919 ft | 378 kts | 33° |
| 2026-05-04 09:27 | 50.90766 | -1.08592 | 15386 ft | 375 kts | 33° |
| 2026-05-04 09:27 | 50.92940 | -1.06339 | 14870 ft | 372 kts | 33° |
| 2026-05-04 09:27 | 50.95093 | -1.04106 | 14335 ft | 369 kts | 33° |
| 2026-05-04 09:27 | 50.97238 | -1.01878 | 13823 ft | 367 kts | 33° |
| 2026-05-04 09:28 | 50.99357 | -0.99644 | 13266 ft | 364 kts | 36° |
| 2026-05-04 09:28 | 51.01250 | -0.97108 | 12809 ft | 358 kts | 46° |
| 2026-05-04 09:28 | 51.02908 | -0.94205 | 12526 ft | 356 kts | 49° |
| 2026-05-04 09:28 | 51.04557 | -0.91257 | 12203 ft | 358 kts | 49° |
| 2026-05-04 09:29 | 51.06210 | -0.88325 | 11875 ft | 353 kts | 49° |
| 2026-05-04 09:29 | 51.07822 | -0.85469 | 11744 ft | 341 kts | 49° |
| 2026-05-04 09:29 | 51.09373 | -0.82714 | 11620 ft | 328 kts | 49° |
| 2026-05-04 09:29 | 51.10867 | -0.80052 | 11500 ft | 315 kts | 49° |
| 2026-05-04 09:30 | 51.12308 | -0.77477 | 11212 ft | 309 kts | 49° |
| 2026-05-04 09:30 | 51.13731 | -0.74931 | 10826 ft | 308 kts | 49° |
| 2026-05-04 09:30 | 51.15149 | -0.72390 | 10444 ft | 306 kts | 49° |
| 2026-05-04 09:30 | 51.16556 | -0.69867 | 10052 ft | 304 kts | 49° |
| 2026-05-04 09:31 | 51.17958 | -0.67351 | 9658 ft | 302 kts | 49° |
| 2026-05-04 09:31 | 51.19321 | -0.64903 | 9273 ft | 299 kts | 49° |
| 2026-05-04 09:31 | 51.20690 | -0.62442 | 8974 ft | 293 kts | 49° |
| 2026-05-04 09:31 | 51.22028 | -0.60033 | 8710 ft | 289 kts | 49° |
| 2026-05-04 09:32 | 51.23368 | -0.57619 | 8445 ft | 290 kts | 49° |
| 2026-05-04 09:32 | 51.24686 | -0.55243 | 8259 ft | 282 kts | 49° |
| 2026-05-04 09:34 | 51.31477 | -0.39007 | 7017 ft | 248 kts | 76° |
| 2026-05-04 09:34 | 51.31928 | -0.36367 | 7016 ft | 245 kts | 76° |
| 2026-05-04 09:34 | 51.32384 | -0.33738 | 7018 ft | 246 kts | 76° |
| 2026-05-04 09:34 | 51.32841 | -0.31097 | 7018 ft | 247 kts | 76° |
| 2026-05-04 09:35 | 51.33142 | -0.29346 | 7022 ft | 246 kts | 76° |
| 2026-05-04 09:35 | 51.33737 | -0.25860 | 7015 ft | 241 kts | 76° |
| 2026-05-04 09:35 | 51.34162 | -0.23364 | 7010 ft | 224 kts | 76° |
| 2026-05-04 09:35 | 51.34561 | -0.21053 | 7011 ft | 207 kts | 76° |
| 2026-05-04 09:37 | 51.37065 | -0.06420 | 7016 ft | 205 kts | 76° |
| 2026-05-04 09:37 | 51.37442 | -0.04222 | 7020 ft | 205 kts | 76° |
| 2026-05-04 09:38 | 51.37817 | -0.02022 | 7017 ft | 204 kts | 76° |
| 2026-05-04 09:38 | 51.38183 | 0.00162 | 7019 ft | 206 kts | 76° |
| 2026-05-04 09:38 | 51.38588 | 0.02379 | 6968 ft | 208 kts | 64° |
| 2026-05-04 09:38 | 51.39513 | 0.04076 | 6769 ft | 203 kts | 28° |
| 2026-05-04 09:39 | 51.40855 | 0.04579 | 6435 ft | 201 kts | 351° |
| 2026-05-04 09:39 | 51.42104 | 0.03695 | 6074 ft | 198 kts | 313° |
| 2026-05-04 09:39 | 51.42827 | 0.01819 | 5752 ft | 196 kts | 290° |
| 2026-05-04 09:39 | 51.43329 | -0.00180 | 5458 ft | 195 kts | 291° |
| 2026-05-04 09:40 | 51.43880 | -0.02256 | 5145 ft | 196 kts | 292° |
| 2026-05-04 09:40 | 51.44411 | -0.04210 | 4885 ft | 195 kts | 293° |
| 2026-05-04 09:40 | 51.44954 | -0.06191 | 4603 ft | 194 kts | 293° |
| 2026-05-04 09:40 | 51.45504 | -0.08195 | 4317 ft | 194 kts | 293° |
| 2026-05-04 09:41 | 51.46046 | -0.10171 | 4044 ft | 192 kts | 293° |
| 2026-05-04 09:42 | 51.47940 | -0.24006 | 3270 ft | 170 kts | 269° |
| 2026-05-04 09:43 | 51.47923 | -0.25913 | 2959 ft | 172 kts | 269° |
| 2026-05-04 09:43 | 51.47907 | -0.27819 | 2583 ft | 169 kts | 270° |
| 2026-05-04 09:43 | 51.47891 | -0.29863 | 2129 ft | 167 kts | 270° |
| 2026-05-04 09:43 | 51.47877 | -0.31533 | 1801 ft | 168 kts | 270° |
| 2026-05-04 09:44 | 51.47862 | -0.33411 | 1422 ft | 167 kts | 270° |
| 2026-05-04 09:44 | 51.47848 | -0.35232 | 1134 ft | 158 kts | 270° |
| 2026-05-04 09:44 | 51.47834 | -0.36914 | 910 ft | 145 kts | 271° |
| 2026-05-04 09:46 | 51.47738 | -0.45428 | 88 ft | 3 kts | 222° |
| 2026-05-04 09:46 | 51.47675 | -0.45467 | 85 ft | 15 kts | 178° |
| 2026-05-04 09:46 | 51.47599 | -0.45527 | 87 ft | 14 kts | 263° |
| 2026-05-04 09:47 | 51.47595 | -0.45738 | 89 ft | 23 kts | 269° |
| 2026-05-04 09:47 | 51.47594 | -0.45981 | 89 ft | 21 kts | 269° |
| 2026-05-04 09:49 | 51.47580 | -0.47676 | 89 ft | 22 kts | 269° |
| 2026-05-04 09:49 | 51.47579 | -0.47878 | 88 ft | 19 kts | 270° |
| 2026-05-04 09:49 | 51.47579 | -0.48094 | 89 ft | 19 kts | 270° |
| 2026-05-04 09:51 | 51.46986 | -0.48471 | 89 ft | 23 kts | 178° |
| 2026-05-04 09:51 | 51.46882 | -0.48505 | 87 ft | 14 kts | 244° |
| 2026-05-04 09:51 | 51.46877 | -0.48666 | 86 ft | 15 kts | 271° |
| 2026-05-04 09:51 | 51.46878 | -0.48698 | 86 ft | 2 kts | 278° |
| 2026-05-04 09:52 | 51.46914 | -0.48715 | 86 ft | 6 kts | 359° |
| 2026-05-04 09:52 | 51.46927 | -0.48715 | 89 ft | 1 kts | 360° |
| 2026-05-04 09:52 | 51.46931 | -0.48715 | 89 ft | 0 kts | 0° |